Main page
METAR-TAF:

METAR-TAF

Airports :

Gloucestershire Airport

Gloucester, England

latitude: 51-54N, longitude: 002-10W, elevation: 29 m

Current weather observation

The report was made 5 hours and 59 minutes ago, at 18:20 UTC
Wind 11 kt from the West
Temperature 6°C
Humidity 87%
Pressure 1012 hPa
Visibility: 4000 m
Few clouds at a height of 1000 ft
Scattered clouds at a height of 2400 ft
light rain showers

METAR: EGBJ 171820Z 26011KT 9999 4000S -SHRA FEW010 SCT024 06/04 Q1012

Time: 00:19 (00:19 UTC)

Forecast

The report was made 5 hours and 16 minutes ago, at 19:03 UTC
Forecast valid from 17 at 19 UTC to 17 at 20 UTC
Wind 14 kt from the West/Southwest
Visibility 10 km or more
Scattered clouds at a height of 3500 ft
Probability 30% :
Temporary
from 17 at 19 UTC to 17 at 20 UTC
Wind 20 kt from the West with gusts up to 30 kt
Visibility: 4000 m
rain showers

TAF: EGBJ 171903Z 1719/1720 24014KT 9999 SCT035 PROB30 TEMPO 1719/1720 27020G30KT 4000 SHRA

Weather observations and forecasts of more than 4000 airports (METAR and TAF reports).

The available stations are represented by yellow and red dots on the map.

Hover mouse over dot to see the name of the station.

Then click to see weather observations and forecasts.

To change the map : click on the green buttons with a black cross to zoom in, on the green button with a dash to zoom out, or on the green arrows for adjacent maps.


METAR-TAF: